Latest Coastal Weather Observations for Cape Naturaliste

IDW60701

Issued at 3:44 pm WST Wednesday 23 September 2020 (issued every 10 minutes, with the page automatically refreshed every 10 minutes)

About coastal observations | Map of coastal stations | Coastal observations for WA | Marine services | Other Formats
Station Details ID: 009519 Name: CAPE NATURALISTE Lat: -33.54 Lon: 115.02 Height: 109.0 m
Data from the previous 72 hours. | See also: Recent months at Cape Naturaliste
Date/Time
WST
Wind Sea
Height
m
Swell Vis
km
Cloud Weather Temp
°C
Press
MSL
hPa
Rain since
9am
mm
Dir  Spd
kts
Gust
kts
Height
m
Period
s
Dir
23/03:30pm SW 6 8 - - - - - - - 20.9 1023.1 0.0
23/03:00pm S 5 8 - - - - - - - 20.9 1023.1 0.0
23/02:30pm NE 4 7 - - - - - - - 21.0 1023.3 0.0
23/02:00pm NNE 4 6 - - - - - - - 21.1 1023.5 0.0
23/01:30pm E 5 8 - - - - - - - 21.0 1023.9 0.0
23/01:00pm E 6 9 - - - - - - - 21.3 1024.1 0.0
23/12:30pm ESE 8 11 - - - - - - - 20.4 1024.4 0.0
23/12:00pm E 8 11 - - - - - - - 19.9 1024.6 0.0
23/11:30am ESE 9 12 - - - - - - - 19.1 1025.0 0.0
23/11:00am E 10 13 - - - - - - - 18.0 1025.2 0.0
23/10:30am ESE 12 14 - - - - - - - 16.7 1025.4 0.0
23/10:00am E 12 15 - - - - - - - 16.3 1025.8 0.0
23/09:30am E 13 16 - - - - - - - 15.5 1025.9 0.0
23/09:00am ESE 14 18 - - - - - - - 14.7 1025.8 0.0
23/08:30am ESE 12 17 - - - - - - - 14.0 1025.8 0.0
23/08:00am ESE 11 15 - - - - - - - 13.2 1025.8 0.0
23/07:30am SE 11 15 - - - - - - - 12.0 1025.8 0.0
23/07:00am SE 12 16 - - - - - - - 10.8 1025.6 0.0
23/06:30am SE 10 13 - - - - - - - 9.7 1025.5 0.0
23/06:00am SE 11 14 - - - - - - - 9.3 1025.4 0.0
23/05:30am SE 11 13 - - - - - - - 9.0 1025.3 0.0
23/05:00am SE 10 12 - - - - - - - 8.7 1025.2 0.0
23/04:30am SE 10 12 - - - - - - - 8.6 1025.2 0.0
23/04:00am SE 10 12 - - - - - - - 8.7 1025.3 0.0
23/03:30am SE 10 11 - - - - - - - 8.8 1025.2 0.0
23/03:00am SE 10 11 - - - - - - - 8.9 1025.3 0.0
23/02:30am SE 9 11 - - - - - - - 9.2 1025.2 0.0
23/02:00am SE 9 11 - - - - - - - 9.4 1025.3 0.0
23/01:30am SE 9 11 - - - - - - - 9.8 1025.5 0.0
23/01:00am SE 9 11 - - - - - - - 10.1 1025.5 0.0
23/12:30am SE 9 10 - - - - - - - 10.4 1025.5 0.0
23/12:00am SE 9 10 - - - - - - - 10.6 1025.6 0.0
 
Date/Time
WST
Wind Sea
Height
m
Swell Vis
km
Cloud Weather Temp
°C
Press
MSL
hPa
Rain since
9am
mm
Dir  Spd
kts
Gust
kts
Height
m
Period
s
Dir
22/11:30pm SE 8 9 - - - - - - - 10.7 1025.7 0.0
22/11:00pm SSE 9 10 - - - - - - - 10.8 1025.7 0.0
22/10:30pm SSE 9 11 - - - - - - - 11.0 1025.6 0.0
22/10:00pm SSE 9 11 - - - - - - - 11.3 1025.6 0.0
22/09:30pm SSE 8 10 - - - - - - - 11.4 1025.6 0.0
22/09:00pm SSE 9 11 - - - - - - - 11.9 1025.6 0.0
22/08:30pm S 10 12 - - - - - - - 12.6 1025.3 0.0
22/08:00pm S 10 13 - - - - - - - 12.5 1024.8 0.0
22/07:30pm S 10 13 - - - - - - - 12.7 1024.4 0.0
22/07:00pm SSW 11 14 - - - - - - - 13.0 1024.1 0.0
22/06:30pm SSW 9 11 - - - - - - - 13.4 1024.0 0.0
22/06:00pm SSW 10 14 - - - - - - - 14.0 1023.8 0.0
22/05:30pm SSW 11 15 - - - - - - - 15.3 1023.8 0.0
22/05:00pm SSW 11 15 - - - - - - - 15.9 1023.4 0.0
22/04:30pm SSW 10 14 - - - - - - - 16.7 1023.4 0.0
22/04:00pm SW 10 13 - - - - - - - 17.4 1023.4 0.0
22/03:30pm SW 10 13 - - - - - - - 17.8 1023.4 0.0
22/03:00pm SW 10 14 - - - - - - - 18.1 1023.3 0.0
22/02:30pm SW 10 14 - - - - - - - 18.1 1023.1 0.0
22/02:00pm SW 10 14 - - - - - - - 18.6 1023.2 0.0
22/01:30pm SW 10 14 - - - - - - - 18.8 1023.2 0.0
22/01:00pm SW 9 13 - - - - - - - 19.3 1023.4 0.0
22/12:30pm SSW 9 13 - - - - - - - 18.0 1023.5 0.0
22/12:00pm SW 9 14 - - - - - - - 19.3 1023.5 0.0
22/11:30am SW 9 13 - - - - - - - 17.8 1023.6 0.0
22/11:00am SW 10 13 - - - - - - - 17.3 1023.7 0.0
22/10:30am SW 9 14 - - - - - - - 18.5 1023.8 0.0
22/10:00am SW 8 11 - - - - - - - 17.8 1023.9 0.0
22/09:30am SSW 9 12 - - - - - - - 17.3 1023.8 0.0
22/09:00am SW 8 12 - - - - - - - 15.1 1023.7 0.4
22/08:30am SW 5 6 - - - - - - - 15.3 1023.5 0.4
22/08:00am S 6 8 - - - - - - - 15.0 1023.3 0.4
22/07:30am SSE 5 6 - - - - - - - 14.1 1022.9 0.4
22/07:00am ESE 5 7 - - - - - - - 12.4 1022.5 0.4
22/06:30am SW 9 11 - - - - - - - 12.3 1022.1 0.4
22/06:00am SW 10 14 - - - - - - Recent precip. 12.6 1021.8 0.4
22/05:30am SW 11 17 - - - - - - - 12.6 1021.4 0.4
22/05:00am SW 11 20 - - - - - - - 13.9 1021.1 0.2
22/04:30am SW 9 13 - - - - - - - 13.3 1020.8 0.2
22/04:00am SW 11 15 - - - - - - - 13.5 1020.6 0.2
22/03:30am SW 10 14 - - - - - - - 13.7 1020.5 0.2
22/03:00am SSW 10 14 - - - - - - - 13.5 1020.5 0.2
22/02:30am SSW 11 14 - - - - - - - 14.0 1020.5 0.2
22/02:00am SW 11 15 - - - - - - - 14.0 1020.6 0.2
22/01:30am SW 11 15 - - - - - - - 13.8 1020.7 0.2
22/01:00am SW 15 21 - - - - - - - 14.5 1020.6 0.2
22/12:30am SW 13 20 - - - - - - - 14.6 1020.6 0.2
22/12:00am SW 15 19 - - - - - - - 13.9 1020.6 0.2
 
Date/Time
WST
Wind Sea
Height
m
Swell Vis
km
Cloud Weather Temp
°C
Press
MSL
hPa
Rain since
9am
mm
Dir  Spd
kts
Gust
kts
Height
m
Period
s
Dir
21/11:30pm SW 17 23 - - - - - - - 13.6 1020.7 0.2
21/11:00pm WSW 14 19 - - - - - - - 14.3 1020.8 0.2
21/10:30pm WSW 15 20 - - - - - - - 14.3 1021.0 0.2
21/10:00pm WSW 17 22 - - - - - - - 14.6 1021.1 0.2
21/09:30pm WSW 17 22 - - - - - - - 14.3 1021.2 0.2
21/09:00pm WSW 18 24 - - - - - - - 14.4 1021.2 0.2
21/08:30pm WSW 15 19 - - - - - - - 14.5 1021.3 0.2
21/08:00pm WSW 17 23 - - - - - - - 14.9 1021.2 0.2
21/07:30pm WSW 17 23 - - - - - - - 14.5 1021.1 0.2
21/07:00pm WSW 15 19 - - - - - - - 14.5 1020.8 0.2
21/06:30pm W 17 23 - - - - - - - 14.5 1020.8 0.2
21/06:00pm W 16 23 - - - - - - - 14.0 1020.9 0.2
21/05:30pm W 14 19 - - - - - - - 14.5 1020.8 0.2
21/05:00pm W 17 22 - - - - - - - 14.2 1020.8 0.2
21/04:30pm WSW 16 21 - - - - - - - 15.2 1020.8 0.2
21/04:00pm WSW 15 20 - - - - - - - 15.5 1020.7 0.2
21/03:30pm WSW 15 19 - - - - - - - 16.4 1020.6 0.2
21/03:00pm WSW 15 20 - - - - - - - 15.9 1020.6 0.2
21/02:30pm W 14 19 - - - - - - - 16.0 1020.7 0.2
21/02:00pm WSW 13 17 - - - - - - - 15.2 1020.8 0.2
21/01:30pm WSW 13 16 - - - - - - - 15.1 1021.0 0.2
21/01:00pm WSW 14 22 - - - - - - - 15.3 1021.2 0.2
21/12:30pm SW 10 13 - - - - - - - 15.1 1021.3 0.2
21/12:00pm WSW 13 17 - - - - - - - 16.7 1021.3 0.2
21/11:30am WSW 12 18 - - - - - - - 15.5 1021.3 0.2
21/11:00am SW 13 18 - - - - - - - 16.0 1021.6 0.2
21/10:30am WSW 13 19 - - - - - - - 14.5 1021.6 0.0
21/10:00am SW 12 17 - - - - - - - 14.5 1021.6 0.0
21/09:30am SW 12 16 - - - - - - - 14.4 1021.6 0.0
21/09:00am SW 13 17 - - - - - - - 14.1 1021.5 0.4
21/08:30am SW 15 19 - - - - - - - 13.3 1021.3 0.4
21/08:00am SW 15 21 - - - - - - - 13.0 1021.1 0.4
21/07:30am SSW 13 18 - - - - - - - 12.6 1020.8 0.4
21/07:00am SW 13 22 - - - - - - - 12.2 1020.6 0.4
21/06:30am SW 16 23 - - - - - - - 11.9 1020.5 0.4
21/06:00am SSW 15 22 - - - - - - - 11.9 1020.3 0.4
21/05:30am SSW 15 24 - - - - - - - 11.9 1019.9 0.4
21/05:00am SSW 17 23 - - - - - - - 11.7 1019.8 0.4
21/04:30am SW 16 22 - - - - - - - 11.6 1019.7 0.4
21/04:05am SW 17 29 - - - - - - - 11.9 1019.4 0.4
21/04:00am SW 17 24 - - - - - - - 11.6 1019.6 0.4
21/03:30am SSW 16 25 - - - - - - - 11.8 1019.4 0.4
21/03:00am SSW 17 24 - - - - - - - 11.7 1019.3 0.4
21/02:35am SSW 17 27 - - - - - - - 11.4 1019.4 0.4
21/02:30am SSW 18 27 - - - - - - - 11.5 1019.6 0.4
21/02:26am SSW 17 27 - - - - - - - 11.6 1019.5 0.4
21/02:00am SW 15 21 - - - - - - - 11.6 1019.6 0.4
21/01:30am SW 19 26 - - - - - - - 11.7 1019.6 0.4
21/01:03am SW 17 27 - - - - - - - 11.6 1019.6 0.4
21/01:00am SSW 15 23 - - - - - - - 11.5 1019.6 0.4
21/12:30am SSW 17 23 - - - - - - - 11.5 1019.7 0.4
21/12:01am SW 15 26 - - - - - - - 11.6 1019.5 0.4
21/12:00am SW 15 23 - - - - - - - 11.6 1019.6 0.4
 
Date/Time
WST
Wind Sea
Height
m
Swell Vis
km
Cloud Weather Temp
°C
Press
MSL
hPa
Rain since
9am
mm
Dir  Spd
kts
Gust
kts
Height
m
Period
s
Dir
20/11:30pm SSW 16 23 - - - - - - - 11.6 1019.5 0.4
20/11:00pm SSW 16 21 - - - - - - - 11.3 1019.7 0.4
20/10:30pm SW 21 29 - - - - - - - 11.4 1019.7 0.4
20/10:07pm SW 17 27 - - - - - - - 11.0 1019.7 0.4
20/10:00pm SW 19 25 - - - - - - - 10.9 1019.6 0.4
20/09:30pm SW 21 29 - - - - - - - 10.5 1019.4 0.4
20/09:21pm SSW 16 27 - - - - - - - 10.6 1019.4 0.4
20/09:00pm SW 17 24 - - - - - - Rain 10.8 1019.4 0.2
20/08:53pm SW 17 27 - - - - - - - 11.2 1019.4 0.0
20/08:30pm SW 20 29 - - - - - - - 11.6 1019.2 0.0
20/08:19pm SW 18 29 - - - - - - - 11.7 1019.1 0.0
20/08:00pm SW 19 25 - - - - - - - 11.4 1019.0 0.0
20/07:37pm SW 17 27 - - - - - - - 11.5 1019.0 0.0
20/07:30pm SW 19 27 - - - - - - - 11.5 1018.8 0.0
20/07:05pm SSW 18 28 - - - - - - - 11.4 1018.3 0.0
20/07:00pm SSW 18 25 - - - - - - - 11.2 1018.4 0.0
20/06:33pm SW 21 31 - - - - - - - 11.9 1018.2 0.0
20/06:30pm SW 23 31 - - - - - - - 11.7 1018.1 0.0
20/06:00pm SW 23 33 - - - - - - - 11.5 1017.8 0.0
20/05:33pm SW 23 34 - - - - - - - 11.7 1017.1 0.0
20/05:30pm SW 23 31 - - - - - - - 11.6 1017.1 0.0
20/05:07pm SSW 20 30 - - - - - - - 11.8 1017.1 0.0
20/05:00pm SW 21 29 - - - - - - - 11.9 1016.8 0.0
20/04:30pm SSW 22 30 - - - - - - - 11.8 1016.6 0.0
20/04:00pm SW 23 33 - - - - - - - 12.3 1016.4 0.0

Other formats

Comma delimited format used in spreadsheet applications
http://www.bom.gov.au/fwo/IDW60701/IDW60701.94600.axf

JavaScript Object Notation format (JSON) in row-major order
http://www.bom.gov.au/fwo/IDW60701/IDW60701.94600.json

Data quality

Most of these data are generated automatically and are frequently updated. Quality checks on data are not normally performed. It is possible for incorrect values to appear. Refer to information at About Latest Weather Observations and please check the disclaimer before using these data.